Flight Track Log - Related Links

Times and Time Zones

All times are in EDT time to prevent confusion due to time zone crossing. See the SWA2894 flight status page for this flight to view local times or setup timezone preferences in your user account.

Time Position Orientation Groundspeed Altitude Reporting Facility
EDT Latitude Longitude Course Direction KTS MPH feet Rate Location/Type
Sun 12:07:11 PM 37.7167 -122.2333 310° West 146 168 1,000  Level Northern Cal TRACON
Sun 12:08:11 PM 37.7500 -122.2833 310° West 214 246 3,700 3,263 Climbing Northern Cal TRACON
Sun 12:09:05 PM 37.7667 -122.3500 288° West 242 278 7,200 3,020 Climbing Northern Cal TRACON
Sun 12:10:38 PM 37.6864 -122.3406 175° South 252 290 11,100 2,350 Climbing Oakland Center
Sun 12:11:05 PM 37.6500 -122.3000 139° Southeast 339 390 11,900 2,361 Climbing Northern Cal TRACON
Sun 12:11:39 PM 37.6097 -122.2475 134° Southeast 324 373 13,500 3,158 Climbing Oakland Center
Sun 12:12:40 PM 37.5386 -122.1631 137° Southeast 349 402 16,900 2,683 Climbing Oakland Center
Sun 12:13:42 PM 37.4675 -122.0764 136° Southeast 355 409 19,000 1,024 Climbing Oakland Center
Sun 12:14:43 PM 37.3939 -121.9908 137° Southeast 360 414 19,000 541 Level Oakland Center
Sun 12:15:44 PM 37.3203 -121.9028 136° Southeast 365 420 20,100 1,854 Climbing Oakland Center
Sun 12:16:46 PM 37.2311 -121.7961 136° Southeast 418 481 22,800 2,634 Climbing Oakland Center
Sun 12:17:47 PM 37.1447 -121.6956 137° Southeast 425 489 25,500 2,459 Climbing Oakland Center
Sun 12:18:48 PM 37.0614 -121.5989 137° Southeast 432 497 27,800 2,390 Climbing Oakland Center
Sun 12:19:50 PM 36.9747 -121.4972 137° Southeast 429 494 30,400 2,537 Climbing Oakland Center
Sun 12:20:51 PM 36.8722 -121.3736 136° Southeast 428 493 33,000 2,262 Climbing Oakland Center
Sun 12:21:52 PM 36.7819 -121.2719 138° Southeast 427 491 35,000 2,049 Climbing Oakland Center
Sun 12:22:54 PM 36.6961 -121.1717 137° Southeast 424 488 37,200 1,707 Climbing Oakland Center
Sun 12:23:55 PM 36.6139 -121.0731 136° Southeast 413 475 38,500 1,033 Climbing Oakland Center
Sun 12:24:56 PM 36.5267 -120.9761 138° Southeast 420 483 39,300 1,073 Climbing Oakland Center
Sun 12:25:58 PM 36.4400 -120.8750 137° Southeast 427 491 40,700 829 Climbing Oakland Center
Sun 12:26:59 PM 36.3547 -120.7761 137° Southeast 422 486 41,000 148 Climbing Oakland Center
Sun 12:28:00 PM 36.2678 -120.6783 138° Southeast 422 486 41,000 -49 Level Oakland Center
Sun 12:29:02 PM 36.1806 -120.5789 137° Southeast 424 488 40,900  Descending Oakland Center
Sun 12:30:03 PM 36.0936 -120.4797 137° Southeast 425 489 41,000 49 Climbing Oakland Center
Sun 12:31:04 PM 36.0058 -120.3817 138° Southeast 426 490 41,000  Level Oakland Center
Sun 12:32:06 PM 35.9008 -120.2614 137° Southeast 427 491 41,000  Level Oakland Center
Sun 12:33:07 PM 35.8125 -120.1636 138° Southeast 425 489 41,000  Level Oakland Center
Sun 12:34:08 PM 35.7247 -120.0650 138° Southeast 424 488 41,000  Level Oakland Center
Sun 12:35:10 PM 35.6353 -119.9667 138° Southeast 427 491 41,000  Level Oakland Center
Sun 12:36:18 PM 35.5383 -119.8844 145° Southeast 424 488 41,000  Level Los Angeles Center
Sun 12:37:12 PM 35.4400 -119.7978 144° Southeast 426 490 41,000  Level Oakland Center
Sun 12:38:14 PM 35.3422 -119.7153 145° Southeast 426 490 41,000  Level Oakland Center
Sun 12:39:15 PM 35.2439 -119.6311 145° Southeast 428 493 41,000  Level Oakland Center
Sun 12:40:16 PM 35.1458 -119.5472 145° Southeast 429 494 41,000 -1,073 Level Oakland Center
Sun 12:41:18 PM 35.0483 -119.4647 145° Southeast 427 491 38,800 -2,585 Descending Oakland Center
Sun 12:42:19 PM 34.9519 -119.3836 145° Southeast 422 486 35,700 -3,098 Descending Oakland Center
Sun 12:43:20 PM 34.8592 -119.3028 144° Southeast 416 479 32,500 -3,639 Descending Oakland Center
Sun 12:44:21 PM 34.7483 -119.2097 145° Southeast 407 468 28,300 -3,512 Descending Oakland Center
Sun 12:45:23 PM 34.6519 -119.1281 145° Southeast 413 475 25,300 -2,870 Descending Oakland Center
Sun 12:46:39 PM 34.5408 -119.0367 146° Southeast 406 467 21,700 -3,261 Descending Los Angeles Center
Sun 12:47:41 PM 34.4492 -118.9594 145° Southeast 404 465 17,800 -2,565 Descending Los Angeles Center
Sun 12:48:43 PM 34.3633 -118.8875 145° Southeast 378 435 16,400 -1,694 Descending Los Angeles Center
Sun 12:49:45 PM 34.2600 -118.8464 162° South 327 376 14,300 -2,081 Descending Los Angeles Center
Sun 12:50:47 PM 34.1753 -118.8147 163° South 320 368 12,100 -1,500 Descending Los Angeles Center
Sun 12:51:49 PM 34.0972 -118.7867 163° South 295 339 11,200 -1,016 Descending Los Angeles Center
Sun 12:52:51 PM 34.0567 -118.7094 122° Southeast 269 310 10,000 -871 Descending Los Angeles Center
Sun 12:53:53 PM 34.0403 -118.6225 103° East 268 308 9,400 -1,065 Descending Los Angeles Center
Sun 12:54:55 PM 34.0231 -118.5286 102° East 267 307 7,800 -1,306 Descending Los Angeles Center
Sun 12:55:57 PM 34.0125 -118.4419 98° East 258 297 6,700 -1,016 Descending Los Angeles Center
Sun 12:56:59 PM 34.0233 -118.3558 81° East 260 299 5,700 -1,016 Descending Los Angeles Center
Sun 12:58:01 PM 34.0344 -118.2744 81° East 250 288 4,600 -1,016 Descending Los Angeles Center
Sun 12:59:03 PM 34.0458 -118.1972 80° East 239 275 3,600 -1,161 Descending Los Angeles Center
Sun 01:00:05 PM 34.0061 -118.1781 158° South 224 258 2,200 -677 Descending Los Angeles Center
Sun 01:01:07 PM 33.9769 -118.2350 238° Southwest 200 230 2,200 -242 Level Los Angeles Center
Sun 01:02:09 PM 33.9631 -118.3014 256° West 174 200 1,700 -581 Descending Los Angeles Center
Sun 01:03:11 PM 33.9583 -118.3478 263° West 154 177 1,000 -618 Descending Los Angeles Center
Sun 01:04:25 PM 33.9536 -118.3947 263° West 146 168 300 -568 Descending Los Angeles Center
Sun 01:06:00 PM 33.9333 -118.4000 228° Southwest  Level FlightAware Approximate
Sun 01:13:00 PM 33.9425 -118.4081 228° Southwest  Level Estimated

Login

Don't have an account? Register now (free) for customized features, flight alerts, and more!